This is the latest recevied weather packets stored in our database for station/object N7WSS. If no packets are shown the sender has not sent any weather packets the latest 10 day(s).
| Time | Temp. | Humidity | Pressure | Rain* | Wind** | Luminosity | Snow |
|---|---|---|---|---|---|---|---|
| 1777642069 | 13.89° C | 74% | 1010.9 hPa | 0 mm | - | - | - |
| 1777641766 | 13.33° C | 75% | 1011.1 hPa | 0 mm | - | - | - |
| 1777641466 | 12.78° C | 79% | 1010.7 hPa | 0 mm | - | - | - |
| 1777641162 | 12.22° C | 81% | 1010.7 hPa | 0 mm | - | - | - |
| 1777640857 | 11.67° C | 82% | 1010.5 hPa | 0 mm | - | - | - |
| 1777640555 | 11.67° C | 83% | 1010.6 hPa | 0 mm | - | - | - |
| 1777639948 | 11.67° C | 83% | 1010.7 hPa | 0 mm | - | - | - |
| 1777639645 | 11.11° C | 83% | 1010.5 hPa | 0 mm | - | - | - |
| 1777639038 | 11.11° C | 81% | 1010.2 hPa | 0 mm | - | - | - |
| 1777638734 | 11.11° C | 81% | 1010.6 hPa | 0 mm | - | - | - |
| 1777638128 | 11.11° C | 80% | 1010.3 hPa | 0 mm | - | - | - |
| 1777637823 | 11.11° C | 78% | 1010.2 hPa | 0 mm | - | - | - |
| 1777637520 | 11.67° C | 78% | 1010.1 hPa | 0 mm | - | - | - |
| 1777637218 | 11.67° C | 77% | 1010.2 hPa | 0 mm | - | - | - |
| 1777636914 | 11.67° C | 77% | 1010 hPa | 0 mm | - | - | - |
| 1777636610 | 11.67° C | 76% | 1010 hPa | 0 mm | - | - | - |
| 1777636306 | 12.22° C | 75% | 1010.1 hPa | 0 mm | - | - | - |
| 1777636001 | 12.22° C | 75% | 1009.7 hPa | 0 mm | - | - | - |
| 1777635697 | 12.22° C | 74% | 1009.6 hPa | 0 mm | - | - | - |
| 1777635394 | 12.78° C | 73% | 1009.9 hPa | 0 mm | - | - | - |
| 1777635091 | 12.78° C | 73% | 1009.9 hPa | 0 mm | - | - | - |
| 1777634787 | 13.33° C | 72% | 1009.4 hPa | 0 mm | - | - | - |
| 1777634484 | 13.33° C | 71% | 1009.6 hPa | 0 mm | - | - | - |
| 1777634181 | 13.33° C | 70% | 1009.6 hPa | 0 mm | - | - | - |
| 1777633877 | 13.89° C | 69% | 1009.6 hPa | 0 mm | - | - | - |
* Rain latest hour (hover to see other rain measurements)
** Current wind speed in m/s (hover to see current wind gust speed)